Time;durP1;ratioP1;P1;durP2;ratioP2;P2;SDS_P1;SDS_P2;PMS_P1;PMS_P2;Temp;Humidity;BMP_temperature;BMP_pressure;BME280_temperature;BME280_humidity;BME280_pressure;Samples;Min_cycle;Max_cycle;Signal;HPM_P1;HPM_P2
2021/12/09 00:01:15;;;;;;;5.43;2.40;;;;;;;10.38;46.84;99884.00;5033844;28;20050;-81
2021/12/09 00:03:42;;;;;;;7.07;2.50;;;;;;;10.35;47.14;99885.09;5033617;28;20049;-81
2021/12/09 00:06:12;;;;;;;5.72;2.38;;;;;;;10.36;47.09;99885.97;5026825;28;20467;-82
2021/12/09 00:08:41;;;;;;;5.22;3.00;;;;;;;10.34;47.14;99879.81;5052103;28;20036;-81
2021/12/09 00:11:58;;;;;;;4.47;2.42;;;;;;;10.35;46.72;99879.69;5044032;28;20064;-82
2021/12/09 00:14:28;;;;;;;4.90;2.00;;;;;;;10.30;47.09;99888.19;5048546;28;20069;-81
2021/12/09 00:16:58;;;;;;;6.22;2.65;;;;;;;10.32;47.19;99884.47;5048825;28;20053;-82
2021/12/09 00:19:26;;;;;;;7.03;2.40;;;;;;;10.30;46.95;99880.03;5046536;28;20129;-81
2021/12/09 00:21:56;;;;;;;5.95;2.70;;;;;;;10.29;47.17;99878.31;5032981;28;20053;-81
2021/12/09 00:24:23;;;;;;;4.68;2.30;;;;;;;10.29;47.10;99878.31;5032737;28;20087;-81
2021/12/09 00:26:52;;;;;;;5.13;2.38;;;;;;;10.29;46.88;99885.63;5019388;28;20054;-81
2021/12/09 00:29:21;;;;;;;6.75;2.67;;;;;;;10.28;47.06;99879.31;5031205;28;20045;-81
2021/12/09 00:31:48;;;;;;;6.65;2.67;;;;;;;10.27;47.21;99880.31;5031632;28;20478;-81
2021/12/09 00:34:16;;;;;;;8.27;3.10;;;;;;;10.28;47.08;99883.88;5027245;28;20762;-81
2021/12/09 00:36:56;;;;;;;7.70;2.85;;;;;;;10.24;47.23;99874.25;5027788;28;20081;-81
2021/12/09 00:39:24;;;;;;;5.80;3.30;;;;;;;10.22;47.11;99871.66;5042835;28;20107;-82
2021/12/09 00:41:50;;;;;;;6.53;3.13;;;;;;;10.20;47.37;99883.66;5033192;28;20042;-82
2021/12/09 00:44:18;;;;;;;5.88;2.95;;;;;;;10.18;46.99;99886.47;5040737;28;20049;-81
2021/12/09 00:46:46;;;;;;;5.35;3.47;;;;;;;10.16;47.00;99874.84;5032828;28;20103;-81
2021/12/09 00:49:13;;;;;;;6.65;3.33;;;;;;;10.14;47.16;99874.09;5032216;28;20056;-81
2021/12/09 00:51:39;;;;;;;6.45;3.20;;;;;;;10.13;47.15;99879.66;5046674;28;20046;-81
2021/12/09 00:54:06;;;;;;;6.15;3.42;;;;;;;10.09;47.08;99878.19;5040744;28;20474;-81
2021/12/09 00:56:33;;;;;;;7.18;3.28;;;;;;;10.09;47.45;99884.47;5030864;28;20136;-81
2021/12/09 00:58:59;;;;;;;6.38;3.45;;;;;;;10.07;47.38;99886.44;5033728;28;20136;-81
2021/12/09 01:01:26;;;;;;;6.57;3.17;;;;;;;10.06;47.51;99875.69;5032003;28;20053;-81
2021/12/09 01:03:54;;;;;;;6.03;2.70;;;;;;;10.05;47.38;99882.97;5047365;28;20096;-81
2021/12/09 01:06:21;;;;;;;7.13;3.10;;;;;;;10.04;47.53;99883.97;5031693;28;20075;-81
2021/12/09 01:08:48;;;;;;;5.35;3.03;;;;;;;10.04;47.42;99883.97;5036616;28;20056;-81
2021/12/09 01:11:15;;;;;;;5.47;2.88;;;;;;;10.04;47.67;99883.97;5038891;28;20044;-81
2021/12/09 01:13:42;;;;;;;6.68;3.22;;;;;;;10.06;47.65;99881.13;5032303;28;20045;-81
2021/12/09 01:16:11;;;;;;;8.73;3.38;;;;;;;10.06;47.80;99890.13;5047464;28;20388;-81
2021/12/09 01:18:39;;;;;;;4.10;2.70;;;;;;;10.08;47.77;99892.72;5047201;28;20073;-82
2021/12/09 01:21:08;;;;;;;6.47;2.83;;;;;;;10.06;47.52;99883.84;5046906;28;20054;-82
2021/12/09 01:23:35;;;;;;;5.10;2.70;;;;;;;10.08;47.78;99885.44;5031897;28;20049;-81
2021/12/09 01:26:04;;;;;;;6.28;3.10;;;;;;;10.08;47.87;99885.44;5030532;28;20485;-82
2021/12/09 01:28:40;;;;;;;5.22;2.63;;;;;;;10.07;47.51;99889.13;5046662;28;20081;-81
2021/12/09 01:31:08;;;;;;;5.88;3.20;;;;;;;10.07;47.96;99896.41;5032003;28;20066;-81
2021/12/09 01:33:36;;;;;;;5.88;3.22;;;;;;;10.09;47.85;99899.88;5031754;28;20045;-81
2021/12/09 01:36:05;;;;;;;6.47;2.88;;;;;;;10.08;47.65;99906.28;5030213;28;20505;-81
2021/12/09 01:38:33;;;;;;;6.53;2.60;;;;;;;10.05;47.81;99907.38;5033524;28;20376;-81
2021/12/09 01:41:03;;;;;;;7.53;3.03;;;;;;;10.05;47.75;99912.81;5043239;28;20052;-81
2021/12/09 01:43:30;;;;;;;5.45;2.95;;;;;;;10.05;47.79;99920.06;5032668;28;20485;-81
2021/12/09 01:46:02;;;;;;;5.38;2.80;;;;;;;10.06;47.75;99921.81;5032915;28;20060;-82
2021/12/09 01:48:29;;;;;;;7.47;3.15;;;;;;;10.02;47.99;99923.03;5031196;28;20052;-82
2021/12/09 01:50:56;;;;;;;6.82;3.45;;;;;;;10.01;47.59;99916.75;5046502;28;20455;-81
2021/12/09 01:53:22;;;;;;;6.80;3.42;;;;;;;10.00;47.41;99919.59;5029221;28;20405;-81
2021/12/09 01:55:49;;;;;;;5.82;2.88;;;;;;;9.99;47.74;99920.56;5030470;28;20050;-81
2021/12/09 01:58:16;;;;;;;6.18;3.05;;;;;;;9.97;47.84;99922.53;5030027;28;20065;-81
2021/12/09 02:00:46;;;;;;;6.80;3.40;;;;;;;9.96;47.51;99931.69;5031639;28;20409;-81
2021/12/09 02:03:13;;;;;;;6.55;3.05;;;;;;;9.94;47.62;99929.06;5031693;28;20518;-81
2021/12/09 02:05:41;;;;;;;6.93;3.08;;;;;;;9.95;47.83;99929.94;5028756;28;20057;-81
2021/12/09 02:08:09;;;;;;;7.57;3.30;;;;;;;9.92;47.86;99921.06;5030872;28;20053;-82
2021/12/09 02:10:36;;;;;;;7.80;3.50;;;;;;;9.91;47.69;99923.88;5043616;28;20123;-81
2021/12/09 02:13:02;;;;;;;9.20;4.22;;;;;;;9.88;47.52;99922.28;5026903;28;20140;-81
2021/12/09 02:15:29;;;;;;;7.53;3.80;;;;;;;9.86;47.78;99926.09;5017087;28;20045;-81
2021/12/09 02:17:56;;;;;;;6.72;4.03;;;;;;;9.84;47.73;99925.34;5046776;28;20057;-82
2021/12/09 02:20:32;;;;;;;8.70;4.10;;;;;;;9.85;47.98;99933.38;5030695;28;20046;-81
2021/12/09 02:23:08;;;;;;;8.05;4.32;;;;;;;9.81;47.89;99925.59;5026039;28;20558;-81
2021/12/09 02:25:41;;;;;;;8.18;4.05;;;;;;;9.78;48.04;99918.59;5046143;28;20062;-81
2021/12/09 02:28:07;;;;;;;8.23;3.85;;;;;;;9.73;47.63;99915.34;5031115;28;20447;-81
2021/12/09 02:30:34;;;;;;;9.10;4.38;;;;;;;9.74;47.80;99918.94;5029160;28;20474;-81
2021/12/09 02:33:01;;;;;;;7.15;3.85;;;;;;;9.71;47.80;99919.19;5030516;28;20056;-81
2021/12/09 02:35:27;;;;;;;7.80;3.78;;;;;;;9.69;47.59;99919.28;5029155;28;20053;-81
2021/12/09 02:37:54;;;;;;;7.25;3.83;;;;;;;9.66;47.79;99915.94;5030854;28;20061;-81
2021/12/09 02:40:21;;;;;;;8.32;3.70;;;;;;;9.63;48.03;99917.06;5045113;28;20053;-81
2021/12/09 02:42:48;;;;;;;8.40;3.75;;;;;;;9.61;47.87;99910.03;5032264;28;20127;-81
2021/12/09 02:45:15;;;;;;;7.57;3.63;;;;;;;9.59;47.83;99912.84;5032567;28;20065;-81
2021/12/09 02:47:42;;;;;;;7.18;3.63;;;;;;;9.57;47.98;99916.66;5050732;28;20103;-81
2021/12/09 02:50:09;;;;;;;9.02;3.75;;;;;;;9.56;47.97;99915.78;5029067;28;20385;-81
2021/12/09 02:52:36;;;;;;;7.95;3.67;;;;;;;9.54;47.93;99909.66;5032995;28;20536;-82
2021/12/09 02:55:03;;;;;;;6.45;3.65;;;;;;;9.54;48.25;99915.06;5024550;28;20049;-81
2021/12/09 02:57:30;;;;;;;7.68;3.47;;;;;;;9.52;48.08;99914.31;5050176;28;20057;-81
2021/12/09 02:59:57;;;;;;;6.45;3.28;;;;;;;9.51;48.09;99915.31;5029372;28;20046;-81
2021/12/09 03:02:23;;;;;;;7.93;3.75;;;;;;;9.50;47.95;99910.88;5035301;28;20050;-81
2021/12/09 03:04:53;;;;;;;6.93;3.20;;;;;;;9.49;47.85;99910.00;5026195;28;20507;-81
2021/12/09 03:07:25;;;;;;;9.75;3.33;;;;;;;9.48;47.86;99915.53;5025849;28;20061;-81
2021/12/09 03:09:59;;;;;;;8.00;3.58;;;;;;;9.45;48.06;99908.53;5037463;28;20759;-81
2021/12/09 03:12:29;;;;;;;6.45;3.15;;;;;;;9.45;48.27;99907.66;5055742;28;20094;-81
2021/12/09 03:14:57;;;;;;;6.63;3.45;;;;;;;9.40;47.57;99910.69;5033310;28;20049;-81
2021/12/09 03:17:24;;;;;;;5.70;3.03;;;;;;;9.38;47.67;99907.28;5030295;28;20062;-81
2021/12/09 03:19:51;;;;;;;6.95;3.30;;;;;;;9.37;47.98;99912.81;5032526;28;20103;-81
2021/12/09 03:22:18;;;;;;;5.95;2.90;;;;;;;9.35;47.77;99912.03;5034461;28;20413;-82
2021/12/09 03:24:46;;;;;;;8.23;3.55;;;;;;;9.33;47.93;99912.16;5032981;28;20053;-81
2021/12/09 03:27:13;;;;;;;7.13;3.70;;;;;;;9.32;47.62;99909.56;5034914;28;20053;-82
2021/12/09 03:29:41;;;;;;;7.47;3.40;;;;;;;9.30;47.95;99901.59;5032679;28;20064;-81
2021/12/09 03:32:22;;;;;;;;;;;;;;;;;;;;;
2021/12/09 03:34:49;;;;;;;7.13;3.35;;;;;;;9.26;47.82;99908.19;5033338;28;20049;-81
2021/12/09 03:37:20;;;;;;;7.93;3.58;;;;;;;9.27;48.19;99909.06;5021831;28;20074;-81
2021/12/09 03:39:48;;;;;;;6.72;3.40;;;;;;;9.24;48.07;99910.16;5034756;28;20045;-81
2021/12/09 03:42:17;;;;;;;6.93;3.42;;;;;;;9.22;48.01;99909.44;5033937;28;20053;-81
2021/12/09 03:44:46;;;;;;;7.20;2.95;;;;;;;9.20;47.96;99910.53;5014993;28;20050;-81
2021/12/09 03:47:15;;;;;;;6.00;3.30;;;;;;;9.19;48.11;99912.34;5016423;28;20099;-82
2021/12/09 03:49:42;;;;;;;6.25;3.30;;;;;;;9.15;48.03;99913.56;5031106;28;20045;-81
2021/12/09 03:52:11;;;;;;;5.32;3.25;;;;;;;9.13;48.02;99916.41;5033247;28;20581;-81
2021/12/09 03:54:39;;;;;;;6.72;3.30;;;;;;;9.11;48.02;99912.94;5017115;28;20046;-81
2021/12/09 03:57:07;;;;;;;7.10;3.65;;;;;;;9.09;47.65;99914.91;5032903;28;20053;-81
2021/12/09 03:59:34;;;;;;;8.00;3.45;;;;;;;9.05;47.84;99917.97;5031065;28;20107;-81
2021/12/09 04:02:01;;;;;;;6.10;3.30;;;;;;;8.99;47.67;99911.16;5036064;28;20075;-81
2021/12/09 04:04:28;;;;;;;7.75;3.60;;;;;;;8.98;47.84;99911.25;5041974;28;20046;-81
2021/12/09 04:06:55;;;;;;;7.57;3.53;;;;;;;8.95;47.84;99914.22;5032971;28;20488;-82
2021/12/09 04:09:22;;;;;;;8.88;3.95;;;;;;;8.93;48.08;99924.28;5064429;28;20077;-82
2021/12/09 04:11:50;;;;;;;5.65;3.05;;;;;;;8.91;48.04;99918.13;5034740;28;20111;-81
2021/12/09 04:14:18;;;;;;;8.93;3.72;;;;;;;8.89;47.97;99917.41;5015279;28;20136;-81
2021/12/09 04:16:46;;;;;;;6.30;3.17;;;;;;;8.85;47.93;99918.59;5021948;28;20104;-81
2021/12/09 04:19:13;;;;;;;6.80;2.90;;;;;;;8.82;48.15;99918.81;5024394;28;20539;-82
2021/12/09 04:21:42;;;;;;;6.88;3.58;;;;;;;8.78;47.98;99929.00;5050252;28;20053;-81
2021/12/09 04:24:11;;;;;;;7.32;3.30;;;;;;;8.73;48.17;99931.16;5041460;28;20898;-81
2021/12/09 04:26:40;;;;;;;8.10;3.30;;;;;;;8.71;48.14;99936.72;5018494;28;20412;-81
2021/12/09 04:29:09;;;;;;;6.63;3.20;;;;;;;8.66;48.26;99933.47;5025093;28;20046;-81
2021/12/09 04:31:39;;;;;;;6.10;2.90;;;;;;;8.65;48.52;99939.84;5032100;28;20051;-81
2021/12/09 04:34:14;;;;;;;5.65;3.40;;;;;;;8.65;48.62;99936.28;5015283;28;20076;-81
2021/12/09 04:36:41;;;;;;;7.35;2.97;;;;;;;8.61;48.29;99938.38;5015118;28;20592;-81
2021/12/09 04:39:08;;;;;;;8.00;3.20;;;;;;;8.61;48.23;99932.97;5030616;28;20848;-81
2021/12/09 04:41:35;;;;;;;7.85;2.85;;;;;;;8.63;48.37;99938.25;5038207;28;20044;-82
2021/12/09 04:44:03;;;;;;;5.63;3.08;;;;;;;8.63;48.57;99940.97;5015397;28;20416;-81
2021/12/09 04:46:43;;;;;;;5.82;2.88;;;;;;;8.65;48.41;99930.88;5032358;28;20054;-81
2021/12/09 04:49:10;;;;;;;6.18;3.05;;;;;;;8.61;48.37;99940.22;5030547;28;20563;-81
2021/12/09 04:51:37;;;;;;;5.75;2.70;;;;;;;8.61;48.39;99943.78;5032388;28;20045;-81
2021/12/09 04:54:06;;;;;;;6.35;3.38;;;;;;;8.62;48.56;99945.50;5032122;28;20042;-80
2021/12/09 04:56:33;;;;;;;5.07;2.78;;;;;;;8.61;48.37;99954.59;5030754;28;20042;-81
2021/12/09 04:59:01;;;;;;;6.25;2.80;;;;;;;8.62;48.37;99959.03;5031274;28;20053;-81
2021/12/09 05:01:28;;;;;;;6.18;2.70;;;;;;;8.62;48.29;99959.03;5047530;28;20137;-81
2021/12/09 05:03:57;;;;;;;7.00;2.60;;;;;;;8.61;48.47;99949.19;5031407;28;20095;-81
2021/12/09 05:06:24;;;;;;;7.05;3.03;;;;;;;8.62;48.37;99961.75;5033009;28;20076;-82
2021/12/09 05:08:53;;;;;;;4.80;2.80;;;;;;;8.63;48.27;99974.31;5022021;28;20068;-82
2021/12/09 05:11:47;;;;;;;6.15;2.55;;;;;;;8.60;48.06;99982.63;5032787;28;20045;-82
2021/12/09 05:14:17;;;;;;;6.05;2.78;;;;;;;8.57;48.67;99982.84;5022020;28;20171;-82
2021/12/09 05:16:46;;;;;;;7.00;2.92;;;;;;;8.56;48.39;99983.84;5013803;28;20041;-82
2021/12/09 05:19:13;;;;;;;6.70;2.90;;;;;;;8.54;48.36;99991.19;5030713;28;20046;-82
2021/12/09 05:21:42;;;;;;;7.28;2.83;;;;;;;8.55;48.29;99986.66;5031965;28;20045;-82
2021/12/09 05:24:11;;;;;;;6.05;3.05;;;;;;;8.54;48.64;99995.75;5032148;28;20046;-82
2021/12/09 05:26:45;;;;;;;5.53;2.72;;;;;;;8.53;48.49;99989.47;5014116;28;20735;-83
2021/12/09 05:29:13;;;;;;;5.90;3.13;;;;;;;8.53;48.63;99994.88;5030960;28;20136;-82
2021/12/09 05:34:27;;;;;;;7.82;3.13;;;;;;;8.52;48.55;99997.69;5021847;28;20492;-82
2021/12/09 05:36:53;;;;;;;5.50;2.88;;;;;;;8.52;48.57;100000.41;5031920;28;20057;-82
2021/12/09 05:39:20;;;;;;;5.97;2.90;;;;;;;8.52;48.52;100011.22;5032264;28;20045;-81
2021/12/09 05:41:47;;;;;;;5.45;2.50;;;;;;;8.51;48.44;100018.47;5034509;28;20045;-82
2021/12/09 05:44:15;;;;;;;6.10;2.80;;;;;;;8.51;48.36;100015.75;5030058;28;20046;-81
2021/12/09 05:46:46;;;;;;;5.70;2.95;;;;;;;8.50;48.32;100021.28;5026482;28;20462;-82
2021/12/09 05:49:15;;;;;;;6.72;3.58;;;;;;;8.47;48.35;100016.09;5029508;28;20401;-82
2021/12/09 05:51:43;;;;;;;7.97;3.00;;;;;;;8.46;48.26;100017.94;5030314;28;20046;-82
2021/12/09 05:54:11;;;;;;;5.25;2.70;;;;;;;8.43;48.44;100012.72;5030471;28;20158;-82
2021/12/09 05:56:38;;;;;;;6.03;2.70;;;;;;;8.43;48.58;100025.41;5031694;28;20060;-81
2021/12/09 05:59:07;;;;;;;5.82;3.25;;;;;;;8.41;48.69;100014.69;5025863;28;20049;-82
2021/12/09 06:01:35;;;;;;;5.75;2.92;;;;;;;8.43;48.61;100017.28;5028855;28;20045;-81
2021/12/09 06:04:26;;;;;;;8.07;3.00;;;;;;;8.39;48.56;100017.50;5021585;28;20130;-82
2021/12/09 06:06:53;;;;;;;5.45;3.00;;;;;;;8.39;48.72;100024.75;5025563;28;20049;-82
2021/12/09 06:09:19;;;;;;;6.75;3.03;;;;;;;8.40;48.62;100023.75;5029462;28;20050;-82
2021/12/09 06:11:50;;;;;;;7.53;2.83;;;;;;;8.43;48.81;100022.69;5026045;28;20041;-82
2021/12/09 06:14:17;;;;;;;6.72;3.17;;;;;;;8.43;48.84;100025.41;5029914;28;20038;-82
2021/12/09 06:16:45;;;;;;;5.97;3.58;;;;;;;8.44;48.90;100035.25;5024529;28;20087;-82
2021/12/09 06:19:13;;;;;;;8.52;3.67;;;;;;;8.45;48.89;100034.28;5029412;28;20057;-82
2021/12/09 06:21:43;;;;;;;7.75;3.55;;;;;;;8.44;48.47;100027.13;5048790;28;20045;-82
2021/12/09 06:24:10;;;;;;;8.32;3.53;;;;;;;8.44;48.75;100021.72;5032740;28;20595;-82
2021/12/09 06:26:37;;;;;;;6.60;3.83;;;;;;;8.46;48.77;100034.16;5033987;28;20042;-82
2021/12/09 06:29:05;;;;;;;7.10;4.13;;;;;;;8.46;48.44;100022.47;5032257;28;20068;-82
2021/12/09 06:31:32;;;;;;;11.05;4.25;;;;;;;8.46;48.64;100026.06;5031789;28;20120;-82
2021/12/09 06:33:59;;;;;;;7.90;4.85;;;;;;;8.47;48.83;100026.91;5030612;28;21679;-82
2021/12/09 06:36:26;;;;;;;7.15;4.80;;;;;;;8.46;48.59;100028.75;5016333;28;20042;-82
2021/12/09 06:38:53;;;;;;;9.40;4.90;;;;;;;8.46;48.78;100026.06;5022799;28;20095;-83
2021/12/09 06:41:20;;;;;;;7.70;5.70;;;;;;;8.45;48.41;100032.44;5040450;28;20033;-82
2021/12/09 06:43:46;;;;;;;9.48;6.20;;;;;;;8.44;48.64;100033.41;5030311;28;20120;-82
2021/12/09 06:46:13;;;;;;;9.13;6.30;;;;;;;8.44;48.81;100033.41;5032941;28;20448;-82
2021/12/09 06:48:41;;;;;;;9.75;6.78;;;;;;;8.44;48.65;100038.81;5029670;28;20493;-83
2021/12/09 06:51:10;;;;;;;7.72;6.28;;;;;;;8.45;48.56;100036.97;5032159;28;20041;-84
2021/12/09 06:53:45;;;;;;;8.75;6.82;;;;;;;8.44;48.88;100032.53;5033568;28;20048;-84
2021/12/09 06:56:12;;;;;;;9.45;6.45;;;;;;;8.40;48.71;100030.03;5033900;28;20540;-83
2021/12/09 06:58:39;;;;;;;12.27;7.65;;;;;;;8.40;48.64;100029.16;5033463;28;20061;-83
2021/12/09 07:01:07;;;;;;;8.45;6.05;;;;;;;8.40;48.91;100032.75;5034676;28;20049;-82
2021/12/09 07:03:43;;;;;;;8.65;5.45;;;;;;;8.40;48.71;100029.16;5016999;28;20049;-83
2021/12/09 07:06:11;;;;;;;8.07;4.85;;;;;;;8.39;48.74;100027.47;5031813;28;20037;-83
2021/12/09 07:08:46;;;;;;;7.38;4.22;;;;;;;8.41;48.79;100028.19;5033113;28;20122;-85
2021/12/09 07:11:14;;;;;;;7.60;4.00;;;;;;;8.39;48.88;100031.03;5036661;28;20455;-84
2021/12/09 07:13:41;;;;;;;5.10;3.67;;;;;;;8.42;48.72;100029.06;5007809;28;20060;-83
2021/12/09 07:16:09;;;;;;;7.28;3.50;;;;;;;8.42;48.81;100029.06;5016592;28;20045;-83
2021/12/09 07:18:36;;;;;;;7.28;3.92;;;;;;;8.43;48.92;100030.81;5032693;28;20497;-82
2021/12/09 07:21:07;;;;;;;12.23;5.93;;;;;;;8.44;49.29;100033.41;5034849;28;20053;-87
2021/12/09 07:23:37;;;;;;;12.50;6.70;;;;;;;8.45;49.40;100031.56;5007851;28;20100;-86
2021/12/09 07:26:04;;;;;;;10.45;6.50;;;;;;;8.45;49.22;100037.84;5034017;28;20043;-86
2021/12/09 07:28:34;;;;;;;9.18;5.22;;;;;;;8.45;49.10;100035.13;5034163;28;20053;-83
2021/12/09 07:31:09;;;;;;;10.40;5.57;;;;;;;8.48;48.98;100034.06;5029968;28;20469;-83
2021/12/09 07:33:36;;;;;;;11.63;6.10;;;;;;;8.48;48.82;100042.19;5033152;28;20045;-84
2021/12/09 07:36:04;;;;;;;12.38;6.47;;;;;;;8.49;48.83;100049.28;5035656;28;20588;-84
2021/12/09 07:38:31;;;;;;;13.57;7.20;;;;;;;8.50;49.01;100051.03;5034714;28;20464;-85
2021/12/09 07:40:58;;;;;;;8.60;5.47;;;;;;;8.49;49.09;100046.59;5033962;28;20488;-85
2021/12/09 07:43:26;;;;;;;11.18;6.68;;;;;;;8.50;49.05;100054.59;5034637;28;20054;-85
2021/12/09 07:45:53;;;;;;;10.05;6.70;;;;;;;8.49;49.01;100054.69;5014488;28;20041;-84
2021/12/09 07:48:20;;;;;;;11.88;7.00;;;;;;;8.47;48.95;100054.84;5018116;28;20065;-84
2021/12/09 07:50:47;;;;;;;10.27;6.85;;;;;;;8.46;48.89;100065.75;5028492;28;20053;-83
2021/12/09 07:53:40;;;;;;;8.88;6.60;;;;;;;8.43;48.73;100063.25;5007314;28;20107;-86
2021/12/09 07:56:08;;;;;;;12.85;6.53;;;;;;;8.38;49.05;100077.13;5030380;28;20128;-82
2021/12/09 07:58:35;;;;;;;8.40;6.00;;;;;;;8.35;48.94;100064.66;5034895;28;20044;-85
2021/12/09 08:01:06;;;;;;;8.73;6.10;;;;;;;8.35;49.09;100064.66;5033425;28;20041;-84
2021/12/09 08:03:33;;;;;;;10.32;6.95;;;;;;;8.33;49.01;100072.03;5016595;28;20041;-83
2021/12/09 08:06:06;;;;;;;9.10;6.75;;;;;;;8.34;49.20;100065.63;5017849;28;20133;-84
2021/12/09 08:08:33;;;;;;;11.90;6.97;;;;;;;8.28;49.15;100057.94;5018310;28;20045;-84
2021/12/09 08:11:00;;;;;;;9.10;6.55;;;;;;;8.29;49.16;100051.56;5037784;28;20052;-81
2021/12/09 08:13:27;;;;;;;10.98;6.60;;;;;;;8.29;49.55;100056.09;5033449;28;20107;-84
2021/12/09 08:15:54;;;;;;;10.48;6.63;;;;;;;8.28;49.42;100062.47;5033368;28;20054;-84
2021/12/09 08:20:49;;;;;;;9.32;5.60;;;;;;;8.29;49.11;100072.31;5034077;28;20049;-84
2021/12/09 08:23:17;;;;;;;7.93;5.60;;;;;;;8.28;49.29;100065.19;5033063;28;20049;-83
2021/12/09 08:25:45;;;;;;;10.07;5.70;;;;;;;8.29;49.41;100069.63;5032220;28;20416;-86
2021/12/09 08:28:15;;;;;;;9.52;5.10;;;;;;;8.31;49.73;100065.88;5032177;28;20554;-86
2021/12/09 08:30:46;;;;;;;9.18;4.65;;;;;;;8.31;49.55;100071.28;5031686;28;20068;-87
2021/12/09 08:33:21;;;;;;;6.70;4.63;;;;;;;8.34;49.72;100076.47;5048275;28;20045;-85
2021/12/09 08:35:49;;;;;;;9.05;5.20;;;;;;;8.34;49.63;100079.16;5034183;28;20488;-84
2021/12/09 08:38:20;;;;;;;10.02;4.75;;;;;;;8.36;49.72;100077.22;5033583;28;20056;-84
2021/12/09 08:40:49;;;;;;;9.15;4.63;;;;;;;8.38;49.55;100079.81;5021459;28;21616;-84
2021/12/09 08:43:17;;;;;;;7.75;4.30;;;;;;;8.38;49.59;100080.69;5041771;28;20400;-86
2021/12/09 08:45:50;;;;;;;7.70;3.72;;;;;;;8.39;49.65;100085.13;5032804;28;20480;-85
2021/12/09 08:48:21;;;;;;;7.93;4.25;;;;;;;8.40;49.72;100076.03;5031688;28;20057;-84
2021/12/09 08:50:48;;;;;;;7.00;3.65;;;;;;;8.43;49.67;100084.91;5031206;28;20049;-84
2021/12/09 08:53:20;;;;;;;6.85;3.70;;;;;;;8.43;49.79;100085.78;5015064;28;20053;-84
2021/12/09 08:55:47;;;;;;;7.75;4.07;;;;;;;8.44;49.57;100087.50;5032423;28;20753;-83
2021/12/09 08:58:15;;;;;;;6.80;3.60;;;;;;;8.45;49.60;100083.84;5031700;28;20136;-83
2021/12/09 09:00:44;;;;;;;7.90;3.92;;;;;;;8.46;49.66;100085.56;5020611;28;20057;-85
2021/12/09 09:03:13;;;;;;;8.88;3.83;;;;;;;8.47;49.38;100087.31;5032411;28;20049;-84
2021/12/09 09:05:41;;;;;;;7.53;4.03;;;;;;;8.48;49.83;100089.03;5030948;28;20113;-85
2021/12/09 09:08:08;;;;;;;6.85;4.13;;;;;;;8.48;49.72;100091.75;5034116;28;20115;-85
2021/12/09 09:10:37;;;;;;;9.23;4.80;;;;;;;8.50;49.80;100102.44;5033720;28;20038;-83
2021/12/09 09:13:04;;;;;;;5.93;3.10;;;;;;;8.51;49.78;100096.03;5041773;28;20049;-84
2021/12/09 09:15:37;;;;;;;7.22;3.30;;;;;;;8.55;50.07;100100.28;5030060;28;20463;-86
2021/12/09 09:18:06;;;;;;;6.82;3.10;;;;;;;8.55;49.84;100105.69;5031368;28;20049;-85
2021/12/09 09:20:39;;;;;;;7.00;3.53;;;;;;;8.59;50.06;100104.50;5028392;28;20510;-84
2021/12/09 09:23:11;;;;;;;8.65;4.13;;;;;;;8.61;50.05;100103.41;5024287;28;20382;-86
2021/12/09 09:25:50;;;;;;;6.72;3.50;;;;;;;8.67;50.00;100104.81;5036826;28;20037;-86
2021/12/09 09:28:18;;;;;;;7.60;3.88;;;;;;;8.67;49.70;100100.28;5019132;28;20108;-84
2021/12/09 09:30:53;;;;;;;9.15;3.83;;;;;;;8.72;50.12;100103.53;5034742;28;20045;-83
2021/12/09 09:33:22;;;;;;;6.07;3.20;;;;;;;8.77;49.69;100109.47;5023423;28;20086;-81
2021/12/09 09:35:50;;;;;;;6.25;3.60;;;;;;;8.80;49.89;100111.09;5010747;28;20136;-81
2021/12/09 09:38:19;;;;;;;6.28;3.33;;;;;;;8.83;49.81;100113.56;5014993;28;20053;-80
2021/12/09 09:40:51;;;;;;;6.97;3.65;;;;;;;8.87;49.84;100111.53;5032804;28;20045;-81
2021/12/09 09:43:29;;;;;;;5.57;3.33;;;;;;;8.89;49.91;100113.16;5032471;28;20049;-79
2021/12/09 09:46:05;;;;;;;6.35;3.42;;;;;;;8.96;49.83;100119.00;5004850;28;20124;-79
2021/12/09 09:48:33;;;;;;;7.18;3.50;;;;;;;8.97;49.89;100123.44;5030302;28;20652;-79
2021/12/09 09:51:02;;;;;;;8.30;3.38;;;;;;;9.00;49.59;100124.06;5036326;28;20049;-79
2021/12/09 09:53:29;;;;;;;5.45;3.30;;;;;;;9.04;49.84;100128.28;5029270;28;20057;-79
2021/12/09 09:55:56;;;;;;;4.90;3.20;;;;;;;9.09;49.70;100125.22;5026956;28;20108;-79
2021/12/09 09:58:25;;;;;;;5.53;3.20;;;;;;;9.10;49.52;100130.53;5027691;28;20057;-79
2021/12/09 10:00:52;;;;;;;6.00;3.10;;;;;;;9.14;49.66;100126.63;5020553;28;20053;-79
2021/12/09 10:03:18;;;;;;;5.00;3.17;;;;;;;9.17;49.55;100125.53;5031101;28;20045;-79
2021/12/09 10:05:49;;;;;;;5.20;3.10;;;;;;;9.21;49.64;100124.34;5031857;28;20046;-79
2021/12/09 10:08:17;;;;;;;7.65;3.15;;;;;;;9.23;49.52;100119.66;5032790;28;20041;-79
2021/12/09 10:10:46;;;;;;;8.23;3.40;;;;;;;9.26;49.30;100111.34;5048034;28;20073;-78
2021/12/09 10:13:18;;;;;;;7.43;3.67;;;;;;;9.29;49.35;100111.13;5031087;28;20120;-80
2021/12/09 10:15:49;;;;;;;7.28;3.60;;;;;;;9.32;49.50;100123.56;5012054;28;20049;-79
2021/12/09 10:18:33;;;;;;;6.97;3.63;;;;;;;9.34;48.88;100114.34;5025452;28;20050;-79
2021/12/09 10:21:00;;;;;;;7.70;3.75;;;;;;;9.34;49.34;100110.78;5019282;28;20053;-78
2021/12/09 10:23:40;;;;;;;6.10;3.38;;;;;;;9.39;49.13;100097.75;5029743;28;20045;-77
2021/12/09 10:26:28;;;;;;;6.20;3.10;;;;;;;9.40;49.21;100104.88;5013049;28;20041;-77
2021/12/09 10:29:08;;;;;;;6.13;3.38;;;;;;;9.42;49.09;100103.81;4993241;28;20101;-77
2021/12/09 10:31:45;;;;;;;7.03;3.42;;;;;;;9.45;49.33;100100.03;5027150;28;20049;-78
2021/12/09 10:37:00;;;;;;;5.10;3.25;;;;;;;9.49;49.42;100102.38;5028006;28;20049;-77
2021/12/09 10:39:42;;;;;;;6.40;3.33;;;;;;;9.54;49.03;100102.03;5029388;28;20415;-77
2021/12/09 10:42:22;;;;;;;6.22;3.53;;;;;;;9.58;48.95;100091.81;5033268;28;20107;-77
2021/12/09 10:44:51;;;;;;;5.55;3.22;;;;;;;9.57;49.17;100090.09;5029178;28;20126;-77
2021/12/09 10:47:45;;;;;;;6.75;3.63;;;;;;;9.62;48.79;100088.78;5028476;28;20042;-77
2021/12/09 10:52:57;;;;;;;6.07;3.60;;;;;;;9.65;48.97;100084.97;5023696;28;20061;-77
2021/12/09 10:55:32;;;;;;;7.35;3.90;;;;;;;9.66;49.04;100081.28;5019121;28;20108;-77
2021/12/09 10:58:09;;;;;;;9.85;4.20;;;;;;;9.68;48.82;100080.19;5031298;28;20049;-77
2021/12/09 11:00:56;;;;;;;6.35;3.72;;;;;;;9.69;48.79;100075.63;5025758;28;20433;-79
2021/12/09 11:03:34;;;;;;;7.05;3.67;;;;;;;9.70;48.79;100074.66;5030383;28;20133;-81
2021/12/09 11:06:03;;;;;;;6.55;3.47;;;;;;;9.69;48.78;100060.25;5031045;28;20077;-83
2021/12/09 11:08:30;;;;;;;9.50;3.97;;;;;;;9.70;48.85;100069.22;5033003;28;20778;-81
2021/12/09 11:11:06;;;;;;;7.75;4.13;;;;;;;9.73;48.64;100060.84;5044335;28;20053;-82
2021/12/09 11:13:41;;;;;;;9.65;4.13;;;;;;;9.72;48.50;100057.28;5010597;28;20057;-82
2021/12/09 11:16:08;;;;;;;9.52;4.57;;;;;;;9.70;48.87;100053.84;5031241;28;20046;-82
2021/12/09 11:18:42;;;;;;;7.05;3.70;;;;;;;9.73;48.59;100053.59;5031813;28;20638;-80
2021/12/09 11:21:14;;;;;;;7.50;3.75;;;;;;;9.74;48.70;100051.75;5030257;28;20048;-79
2021/12/09 11:23:55;;;;;;;7.22;3.50;;;;;;;9.72;48.61;100057.28;5020856;28;20107;-80
2021/12/09 11:26:27;;;;;;;5.43;3.47;;;;;;;9.70;48.77;100050.25;5024649;28;20041;-80
2021/12/09 11:28:59;;;;;;;6.45;3.60;;;;;;;9.69;48.50;100045.81;5032093;28;20378;-80
2021/12/09 11:31:33;;;;;;;7.03;3.20;;;;;;;9.70;48.71;100043.00;5043483;28;20132;-81
2021/12/09 11:34:09;;;;;;;7.18;3.28;;;;;;;9.71;48.58;100038.44;5016175;28;20577;-81
2021/12/09 11:36:41;;;;;;;8.32;3.75;;;;;;;9.71;48.57;100038.44;5034510;28;20045;-82
2021/12/09 11:39:17;;;;;;;5.88;2.95;;;;;;;9.71;48.52;100036.59;5029506;28;20107;-82
2021/12/09 11:41:45;;;;;;;6.75;3.25;;;;;;;9.69;48.78;100035.84;5028055;28;20042;-81
2021/12/09 11:44:14;;;;;;;7.05;3.45;;;;;;;9.70;48.80;100039.41;5035608;28;20143;-80
2021/12/09 11:46:43;;;;;;;6.55;3.05;;;;;;;9.72;48.60;100030.16;5010063;28;20145;-80
2021/12/09 11:49:10;;;;;;;6.05;2.88;;;;;;;9.71;48.75;100023.03;5018026;28;20072;-80
2021/12/09 11:51:39;;;;;;;5.88;3.00;;;;;;;9.72;48.91;100030.16;5050223;28;20041;-80
2021/12/09 11:54:09;;;;;;;6.53;3.08;;;;;;;9.74;48.80;100027.34;5034902;28;20049;-81
2021/12/09 11:59:51;;;;;;;7.82;3.38;;;;;;;9.75;48.39;100018.22;5034268;28;20052;-81
2021/12/09 12:11:27;;;;;;;6.60;3.00;;;;;;;9.75;48.44;100015.53;5037378;28;20037;-84